createdAt,value
2022-11-17T16:28:28.274Z,34.70
2022-11-17T16:30:56.748Z,39.25
2022-11-17T16:33:25.420Z,38.95
2022-11-17T16:35:53.979Z,39.13
2022-11-17T16:38:22.132Z,38.58
2022-11-17T16:40:50.662Z,38.70
2022-11-17T16:43:19.389Z,36.92
2022-11-17T16:45:47.934Z,38.25
2022-11-17T16:48:16.453Z,40.70
2022-11-17T16:50:47.669Z,40.00
2022-11-17T16:53:16.435Z,37.78
2022-11-17T16:55:44.843Z,39.47
2022-11-17T16:58:13.668Z,32.15
2022-11-17T17:00:42.368Z,37.40
2022-11-17T17:03:10.799Z,34.08
2022-11-17T17:05:41.208Z,33.17
2022-11-17T17:08:09.459Z,34.95
2022-11-17T17:10:37.838Z,35.00
2022-11-17T17:13:06.174Z,34.72
2022-11-17T17:15:34.763Z,34.25
2022-11-17T17:18:04.020Z,34.60
2022-11-17T17:20:32.724Z,32.42
2022-11-17T17:23:03.227Z,33.17
2022-11-17T17:25:32.076Z,32.22
2022-11-17T17:28:00.812Z,36.30
2022-11-17T17:30:29.140Z,33.55
2022-11-17T17:32:57.783Z,36.70
2022-11-17T17:35:26.368Z,31.13
2022-11-17T17:37:54.517Z,34.28
2022-11-17T17:40:22.777Z,36.15
2022-11-17T17:42:51.243Z,38.58
2022-11-17T17:45:19.679Z,34.85
2022-11-17T17:47:48.192Z,37.03
2022-11-17T17:50:17.084Z,36.85
2022-11-17T17:52:45.234Z,37.83
2022-11-17T17:55:13.863Z,36.42
2022-11-17T17:57:42.709Z,35.13
2022-11-17T18:00:11.750Z,36.42
2022-11-17T18:02:40.299Z,37.40
2022-11-17T18:05:08.733Z,35.42
2022-11-17T18:07:37.357Z,36.20
2022-11-17T18:10:05.783Z,35.13
2022-11-17T18:12:34.185Z,33.78
2022-11-17T18:15:03.417Z,32.35
2022-11-17T18:17:32.133Z,34.88
2022-11-17T18:20:00.908Z,36.60
2022-11-17T18:22:29.468Z,36.38
2022-11-17T18:24:58.516Z,36.25
2022-11-17T18:27:26.768Z,39.72
2022-11-17T18:29:55.239Z,38.88
2022-11-17T18:32:23.478Z,40.88
2022-11-17T18:34:51.724Z,37.80
2022-11-17T18:37:20.278Z,37.72
2022-11-17T18:39:49.412Z,39.28
2022-11-17T18:42:18.126Z,36.38
2022-11-17T18:44:46.364Z,34.70
2022-11-17T18:47:14.518Z,38.05
2022-11-17T18:49:43.188Z,36.42
2022-11-17T18:52:11.475Z,37.75
2022-11-17T18:54:40.071Z,36.53
2022-11-17T18:57:08.276Z,36.03
2022-11-17T18:59:36.967Z,41.13
2022-11-17T19:02:05.197Z,36.13
2022-11-17T19:04:33.338Z,32.80
2022-11-17T19:07:01.573Z,36.97
2022-11-17T19:09:29.827Z,37.70
2022-11-17T19:11:58.675Z,33.67
2022-11-17T19:14:26.948Z,34.28
2022-11-17T19:16:55.253Z,35.33
2022-11-17T19:19:23.496Z,36.08
2022-11-17T19:21:51.732Z,36.30
2022-11-17T19:24:20.015Z,32.38
2022-11-17T19:26:48.417Z,33.97
2022-11-17T19:29:17.810Z,32.28
2022-11-17T19:31:47.776Z,32.85
2022-11-17T19:34:18.794Z,32.55
2022-11-17T19:36:47.299Z,34.38
2022-11-17T19:39:15.987Z,33.58
2022-11-17T19:41:45.994Z,30.77
2022-11-17T19:44:14.555Z,34.72
2022-11-17T19:46:43.778Z,31.70
2022-11-17T19:49:12.968Z,30.60
2022-11-17T19:51:42.633Z,30.30
2022-11-17T19:54:15.053Z,32.92
2022-11-17T19:56:43.154Z,31.40
2022-11-17T19:59:16.227Z,30.77
2022-11-17T20:01:46.654Z,27.98
2022-11-17T20:04:15.214Z,31.60
2022-11-17T20:06:44.009Z,29.90
2022-11-17T20:09:15.535Z,31.67
2022-11-17T20:11:44.048Z,38.63
2022-11-17T20:14:12.278Z,33.22
2022-11-17T20:16:40.769Z,29.90
2022-11-17T20:19:09.304Z,35.10
2022-11-17T20:21:37.968Z,32.97
2022-11-17T20:24:06.534Z,34.42
2022-11-17T20:26:36.457Z,31.55
2022-11-17T20:29:04.808Z,32.90
2022-11-17T20:31:59.248Z,30.63
2022-11-17T20:34:47.734Z,32.85
2022-11-17T20:37:32.163Z,34.85
2022-11-17T20:40:06.989Z,28.80
2022-11-17T20:42:37.169Z,32.97
2022-11-17T20:45:06.013Z,34.85
2022-11-17T20:47:40.528Z,33.70
2022-11-17T20:50:09.313Z,31.90
2022-11-17T20:52:40.256Z,33.58
2022-11-17T20:55:09.205Z,30.05
2022-11-17T20:57:37.253Z,30.77
2022-11-17T21:03:01.563Z,32.78
2022-11-17T21:05:30.094Z,32.35
2022-11-17T21:07:58.533Z,33.05
2022-11-17T21:10:26.734Z,28.92
2022-11-17T21:12:55.056Z,28.42
2022-11-17T21:15:23.254Z,31.33
2022-11-17T21:18:11.093Z,29.48
2022-11-17T21:20:39.572Z,29.42
2022-11-17T21:23:07.935Z,27.33
2022-11-17T21:25:37.655Z,29.65
2022-11-17T21:28:06.108Z,29.83
2022-11-17T21:30:34.413Z,28.35
2022-11-17T21:33:03.014Z,31.33
2022-11-17T21:35:32.293Z,32.28
2022-11-17T21:38:00.537Z,32.33
2022-11-17T21:40:32.172Z,35.17
2022-11-17T21:43:00.609Z,32.05
2022-11-17T21:45:28.702Z,28.65
2022-11-17T21:47:59.510Z,29.33
2022-11-17T21:50:28.008Z,25.65
2022-11-17T21:52:56.485Z,30.55
2022-11-17T21:55:25.507Z,31.33
2022-11-17T21:57:53.723Z,31.83
2022-11-17T22:00:22.325Z,34.25
2022-11-17T22:02:50.612Z,31.27
2022-11-17T22:05:18.885Z,32.92
2022-11-17T22:07:47.219Z,30.55
2022-11-17T22:10:15.397Z,36.50
2022-11-17T22:12:43.658Z,31.45
2022-11-17T22:15:12.024Z,31.23
2022-11-17T22:17:40.350Z,32.70
2022-11-17T22:20:09.019Z,32.05
2022-11-17T22:22:37.463Z,33.88
2022-11-17T22:25:29.833Z,32.75
2022-11-17T22:27:54.788Z,32.90
2022-11-17T22:30:22.957Z,32.33
2022-11-17T22:32:51.223Z,33.28
2022-11-17T22:35:19.793Z,32.78
2022-11-17T22:37:48.386Z,33.90
2022-11-17T22:40:16.903Z,33.22
2022-11-17T22:42:45.547Z,33.65
2022-11-17T22:45:13.593Z,33.25
2022-11-17T22:47:42.582Z,31.88
2022-11-17T22:50:10.754Z,32.67
2022-11-17T22:52:39.507Z,33.83
2022-11-17T22:55:09.828Z,31.02
2022-11-17T22:57:38.468Z,33.20
